Time;durP1;ratioP1;P1;durP2;ratioP2;P2;SDS_P1;SDS_P2;PMS_P1;PMS_P2;Temp;Humidity;BMP_temperature;BMP_pressure;BME280_temperature;BME280_humidity;BME280_pressure;Samples;Min_cycle;Max_cycle;Signal;HPM_P1;HPM_P2
2022/06/27 00:01:29;;;;;;;24.05;15.98;;;;;;;17.08;82.04;101431.06;5012416;28;20038;-59
2022/06/27 00:03:54;;;;;;;22.90;15.95;;;;;;;17.05;82.43;101423.34;5012621;28;20060;-61
2022/06/27 00:06:20;;;;;;;25.20;16.65;;;;;;;17.04;82.29;101419.72;5012381;28;20096;-57
2022/06/27 00:08:47;;;;;;;24.00;16.50;;;;;;;17.02;82.53;101427.63;5012548;28;20080;-60
2022/06/27 00:11:13;;;;;;;23.33;15.88;;;;;;;17.03;82.35;101431.22;5012636;28;20034;-60
2022/06/27 00:13:38;;;;;;;22.73;17.05;;;;;;;17.00;82.52;101424.34;5012168;28;20083;-59
2022/06/27 00:16:04;;;;;;;24.13;16.08;;;;;;;16.98;82.22;101412.69;5012023;28;20029;-60
2022/06/27 00:18:29;;;;;;;23.02;16.25;;;;;;;16.92;82.13;101414.81;5012088;28;20036;-59
2022/06/27 00:20:55;;;;;;;23.25;16.83;;;;;;;16.96;82.09;101417.78;5011996;28;20026;-59
2022/06/27 00:23:20;;;;;;;23.63;16.20;;;;;;;16.92;82.88;101417.59;5011611;28;20051;-57
2022/06/27 00:25:45;;;;;;;23.92;15.43;;;;;;;16.89;83.04;101423.88;5012004;28;20144;-58
2022/06/27 00:28:10;;;;;;;23.33;15.38;;;;;;;16.93;82.67;101435.19;5011430;28;20401;-59
2022/06/27 00:30:36;;;;;;;24.23;16.45;;;;;;;16.89;82.90;101435.06;5010499;28;20132;-59
2022/06/27 00:33:01;;;;;;;22.95;16.27;;;;;;;16.89;82.23;101437.03;5010370;28;20026;-59
2022/06/27 00:35:26;;;;;;;23.77;16.58;;;;;;;16.90;82.32;101438.66;5011481;28;20113;-59
2022/06/27 00:37:51;;;;;;;23.92;16.70;;;;;;;16.87;82.77;101453.28;5011678;28;20030;-60
2022/06/27 00:40:17;;;;;;;24.58;16.30;;;;;;;16.87;82.49;101450.50;5011448;28;20443;-59
2022/06/27 00:42:42;;;;;;;23.08;16.45;;;;;;;16.90;82.53;101456.25;5011852;28;20032;-59
2022/06/27 00:45:08;;;;;;;24.92;17.17;;;;;;;16.84;82.50;101458.41;5012127;28;20113;-58
2022/06/27 00:47:34;;;;;;;23.92;16.98;;;;;;;16.86;83.14;101463.66;5011013;28;20535;-58
2022/06/27 00:49:59;;;;;;;25.55;17.10;;;;;;;16.87;83.47;101464.47;5011419;28;20080;-56
2022/06/27 00:52:24;;;;;;;23.55;16.48;;;;;;;16.86;83.39;101460.06;5009755;28;20115;-58
2022/06/27 00:54:50;;;;;;;24.67;17.42;;;;;;;16.79;83.70;101454.97;5011089;28;20022;-58
2022/06/27 00:57:17;;;;;;;23.83;17.67;;;;;;;16.81;83.65;101458.28;5010722;28;20025;-58
2022/06/27 00:59:42;;;;;;;25.55;17.08;;;;;;;16.81;84.15;101461.88;5011448;28;20029;-59
2022/06/27 01:02:08;;;;;;;23.52;16.67;;;;;;;16.80;84.21;101465.81;5011528;28;20034;-59
2022/06/27 01:04:35;;;;;;;23.63;17.88;;;;;;;16.77;84.32;101457.28;5011280;28;20026;-55
2022/06/27 01:07:01;;;;;;;24.60;16.70;;;;;;;16.76;84.60;101447.25;5011031;28;20056;-58
2022/06/27 01:09:26;;;;;;;25.85;17.35;;;;;;;16.74;84.54;101453.19;5011036;28;20149;-58
2022/06/27 01:11:52;;;;;;;23.63;17.35;;;;;;;16.73;84.49;101454.34;5011111;28;20026;-58
2022/06/27 01:14:18;;;;;;;24.58;17.92;;;;;;;16.74;84.42;101453.19;5010819;28;20112;-59
2022/06/27 01:16:44;;;;;;;23.38;16.58;;;;;;;16.75;84.03;101459.59;5011151;28;20410;-58
2022/06/27 01:19:11;;;;;;;24.95;17.40;;;;;;;16.69;84.32;101453.34;5024858;23;20152;-52
2022/06/27 01:21:48;;;;;;;25.00;17.95;;;;;;;16.73;84.84;101465.50;5012426;28;20193;-52
2022/06/27 01:24:13;;;;;;;25.33;17.23;;;;;;;16.73;84.23;101462.72;5012435;28;20032;-54
2022/06/27 01:26:42;;;;;;;24.98;17.00;;;;;;;16.66;84.91;101466.03;5011905;28;20112;-53
2022/06/27 01:29:07;;;;;;;24.38;17.55;;;;;;;16.71;84.62;101459.44;5012261;28;20034;-55
2022/06/27 01:31:35;;;;;;;26.50;18.40;;;;;;;16.69;84.79;101454.19;5012140;28;20110;-53
2022/06/27 01:34:00;;;;;;;24.95;16.85;;;;;;;16.68;84.91;101451.72;5011866;28;20037;-53
2022/06/27 01:36:43;;;;;;;23.92;17.00;;;;;;;16.67;84.98;101438.94;5012231;28;20049;-54
2022/06/27 01:39:16;;;;;;;23.05;17.17;;;;;;;16.70;84.67;101438.22;5011616;28;20458;-54
2022/06/27 01:41:50;;;;;;;24.13;17.95;;;;;;;16.68;84.82;101435.78;5011858;28;20098;-53
2022/06/27 01:44:17;;;;;;;24.58;17.92;;;;;;;16.68;84.89;101440.53;5012198;28;20034;-52
2022/06/27 01:46:44;;;;;;;25.20;16.92;;;;;;;16.69;84.66;101428.22;5012012;28;20066;-52
2022/06/27 01:49:11;;;;;;;24.70;17.40;;;;;;;16.65;84.89;101424.47;5011888;28;20109;-54
2022/06/27 01:51:37;;;;;;;26.70;17.58;;;;;;;16.63;84.69;101418.38;5011226;28;20121;-53
2022/06/27 01:54:04;;;;;;;24.17;17.80;;;;;;;16.58;85.00;101413.00;5011863;28;20021;-53
2022/06/27 01:56:30;;;;;;;25.83;16.52;;;;;;;16.57;84.75;101414.94;5011907;28;20116;-51
2022/06/27 01:58:57;;;;;;;23.63;16.90;;;;;;;16.51;85.23;101403.13;5011903;28;20105;-53
2022/06/27 02:01:25;;;;;;;24.88;17.80;;;;;;;16.49;85.63;101413.81;5012329;28;20026;-53
2022/06/27 02:03:50;;;;;;;26.10;17.35;;;;;;;16.49;85.47;101405.44;5011213;28;20073;-52
2022/06/27 02:06:16;;;;;;;25.88;17.38;;;;;;;16.50;85.26;101406.28;5011335;28;20033;-52
2022/06/27 02:08:46;;;;;;;24.73;16.80;;;;;;;16.49;85.01;101402.63;5011707;28;20378;-53
2022/06/27 02:11:15;;;;;;;24.77;17.88;;;;;;;16.51;84.63;101405.13;5011515;28;20040;-52
2022/06/27 02:13:41;;;;;;;23.25;16.95;;;;;;;16.51;84.95;101407.91;5011469;28;20076;-54
2022/06/27 02:16:10;;;;;;;23.38;16.08;;;;;;;16.48;85.09;101409.38;5011388;28;20062;-52
2022/06/27 02:18:36;;;;;;;24.52;17.10;;;;;;;16.52;85.02;101410.38;5011050;28;20442;-51
2022/06/27 02:21:01;;;;;;;24.33;16.67;;;;;;;16.50;85.08;101400.69;5011541;28;20028;-54
2022/06/27 02:23:27;;;;;;;24.38;16.98;;;;;;;16.51;84.97;101399.53;5011471;28;20125;-54
2022/06/27 02:25:53;;;;;;;25.33;17.65;;;;;;;16.48;85.13;101389.81;5011045;28;20413;-54
2022/06/27 02:28:19;;;;;;;24.23;16.75;;;;;;;16.43;84.93;101384.44;5011418;28;20034;-53
2022/06/27 02:30:45;;;;;;;25.73;16.73;;;;;;;16.45;85.46;101384.94;5011389;28;20053;-51
2022/06/27 02:33:11;;;;;;;25.52;17.60;;;;;;;16.41;85.89;101383.94;5011342;28;20061;-56
2022/06/27 02:35:38;;;;;;;23.35;17.05;;;;;;;16.35;86.46;101379.69;5009406;28;20036;-54
2022/06/27 02:38:05;;;;;;;24.90;17.83;;;;;;;16.34;86.68;101384.44;5010730;28;20105;-54
2022/06/27 02:40:31;;;;;;;23.83;16.95;;;;;;;16.34;86.37;101386.44;5011027;28;20025;-52
2022/06/27 02:42:58;;;;;;;24.30;17.52;;;;;;;16.35;86.03;101379.69;5011203;28;20420;-51
2022/06/27 02:45:26;;;;;;;24.38;17.27;;;;;;;16.31;85.51;101375.91;5011416;28;20032;-52
2022/06/27 02:47:54;;;;;;;24.83;18.02;;;;;;;16.33;86.29;101382.00;5011245;28;20030;-50
2022/06/27 02:50:24;;;;;;;24.80;17.70;;;;;;;16.32;86.19;101371.97;5010627;28;20109;-53
2022/06/27 02:52:54;;;;;;;26.10;17.60;;;;;;;16.33;86.22;101368.88;5010916;28;20494;-52
2022/06/27 02:55:26;;;;;;;23.60;16.73;;;;;;;16.25;86.72;101358.53;5010837;28;20137;-52
2022/06/27 02:57:56;;;;;;;24.67;17.05;;;;;;;16.20;86.94;101351.16;5010925;28;20115;-49
2022/06/27 03:00:22;;;;;;;26.08;17.70;;;;;;;16.17;87.26;101351.84;5009662;28;20442;-52
2022/06/27 03:02:48;;;;;;;24.02;17.05;;;;;;;16.16;87.35;101352.16;5010667;28;20080;-51
2022/06/27 03:05:13;;;;;;;24.13;16.85;;;;;;;16.17;87.20;101351.84;5010892;28;20402;-50
2022/06/27 03:07:43;;;;;;;24.23;17.73;;;;;;;16.13;87.71;101355.63;5010597;28;20074;-50
2022/06/27 03:10:12;;;;;;;25.35;17.75;;;;;;;16.08;87.38;101359.41;5010979;28;20080;-49
2022/06/27 03:12:38;;;;;;;23.83;17.42;;;;;;;16.03;87.40;101352.03;5009556;28;20034;-49
2022/06/27 03:15:03;;;;;;;25.20;17.80;;;;;;;15.97;88.09;101350.53;5011093;28;20033;-49
2022/06/27 03:17:29;;;;;;;24.17;17.58;;;;;;;15.94;87.96;101344.81;5025815;28;20350;-52
2022/06/27 03:19:56;;;;;;;24.33;17.48;;;;;;;15.90;87.95;101341.88;5010688;28;20040;-52
2022/06/27 03:22:22;;;;;;;24.80;17.70;;;;;;;15.87;88.27;101340.56;5010453;28;20365;-52
2022/06/27 03:24:47;;;;;;;25.10;17.80;;;;;;;15.83;88.96;101338.72;5010787;28;20037;-53
2022/06/27 03:27:13;;;;;;;23.98;17.42;;;;;;;15.82;88.99;101342.66;5010353;28;20050;-53
2022/06/27 03:29:38;;;;;;;26.38;18.92;;;;;;;15.80;89.36;101339.38;5009561;28;20422;-50
2022/06/27 03:32:04;;;;;;;27.27;19.02;;;;;;;15.74;89.70;101333.97;5010092;28;20064;-52
2022/06/27 03:34:30;;;;;;;25.08;18.30;;;;;;;15.74;90.22;101335.94;5010474;28;20557;-53
2022/06/27 03:36:55;;;;;;;27.42;19.15;;;;;;;15.78;90.44;101339.72;5010243;28;20068;-52
2022/06/27 03:39:21;;;;;;;26.15;19.80;;;;;;;15.76;90.51;101342.00;5009805;28;20401;-49
2022/06/27 03:41:47;;;;;;;28.17;20.25;;;;;;;15.71;90.81;101334.63;5010211;28;20061;-49
2022/06/27 03:44:12;;;;;;;25.85;19.70;;;;;;;15.69;91.55;101333.31;5010321;28;20053;-49
2022/06/27 03:46:39;;;;;;;26.98;20.50;;;;;;;15.57;92.01;101323.66;5009014;28;20026;-54
2022/06/27 03:51:49;;;;;;;27.55;20.77;;;;;;;15.58;92.59;101339.25;5010792;28;20119;-53
2022/06/27 03:54:15;;;;;;;27.02;20.90;;;;;;;15.60;92.48;101348.09;5009758;28;20038;-51
2022/06/27 03:56:41;;;;;;;29.55;21.20;;;;;;;15.52;93.29;101336.94;5010054;28;20022;-52
2022/06/27 03:59:06;;;;;;;28.05;20.98;;;;;;;15.51;93.05;101352.84;5010238;28;20477;-51
2022/06/27 04:01:31;;;;;;;27.73;21.80;;;;;;;15.46;93.75;101352.19;5011206;28;20030;-53
2022/06/27 04:03:57;;;;;;;28.95;20.42;;;;;;;15.43;93.75;101342.53;5013363;28;20063;-53
2022/06/27 04:06:22;;;;;;;27.42;21.08;;;;;;;15.42;93.33;101352.03;5013568;28;20489;-52
2022/06/27 04:08:48;;;;;;;27.65;21.05;;;;;;;15.44;94.07;101366.47;5013677;28;20061;-51
2022/06/27 04:11:13;;;;;;;28.08;20.10;;;;;;;15.50;94.27;101364.31;5013819;28;20029;-51
2022/06/27 04:13:38;;;;;;;27.27;21.42;;;;;;;15.49;93.88;101357.94;5013690;28;20022;-48
2022/06/27 04:16:05;;;;;;;29.73;21.10;;;;;;;15.51;93.81;101358.44;5013609;28;20026;-48
2022/06/27 04:18:30;;;;;;;27.17;21.20;;;;;;;15.61;93.70;101351.69;5013361;28;20149;-50
2022/06/27 04:20:55;;;;;;;28.25;21.20;;;;;;;15.73;92.84;101362.19;5013179;28;20492;-51
2022/06/27 04:23:21;;;;;;;27.60;20.92;;;;;;;15.82;92.78;101349.06;5013059;28;20037;-50
2022/06/27 04:25:47;;;;;;;31.02;21.15;;;;;;;15.93;92.54;101348.75;5013126;28;20508;-50
2022/06/27 04:28:12;;;;;;;29.35;21.70;;;;;;;16.07;91.98;101349.38;5012818;28;20049;-63
2022/06/27 04:30:40;;;;;;;28.73;21.55;;;;;;;16.20;91.38;101344.75;5012739;28;20034;-53
2022/06/27 04:33:06;;;;;;;28.73;21.20;;;;;;;16.31;91.21;101334.88;5012898;28;20025;-50
2022/06/27 04:35:32;;;;;;;30.70;22.40;;;;;;;16.49;90.77;101335.63;5013142;28;20030;-50
2022/06/27 04:37:57;;;;;;;28.25;21.80;;;;;;;16.62;89.94;101322.59;5013184;28;20034;-53
2022/06/27 04:40:22;;;;;;;29.73;22.23;;;;;;;16.68;88.94;101324.03;5028178;28;20366;-52
2022/06/27 04:42:50;;;;;;;27.38;21.85;;;;;;;16.67;88.32;101310.44;5013146;28;20034;-51
2022/06/27 04:45:18;;;;;;;30.75;22.08;;;;;;;16.63;88.93;101310.25;5013209;28;20022;-51
2022/06/27 04:47:45;;;;;;;29.00;21.80;;;;;;;16.62;89.01;101300.25;5011567;28;20053;-50
2022/06/27 04:50:18;;;;;;;27.90;22.02;;;;;;;16.59;89.08;101295.34;5013047;28;20038;-52
2022/06/27 04:52:45;;;;;;;29.98;21.98;;;;;;;16.61;88.72;101295.81;5012724;28;20066;-53
2022/06/27 04:55:12;;;;;;;28.08;22.42;;;;;;;16.65;88.94;101305.16;5012999;28;20069;-51
2022/06/27 04:57:40;;;;;;;27.42;21.00;;;;;;;16.66;88.47;101309.59;5012852;28;20069;-53
2022/06/27 05:00:09;;;;;;;28.48;21.10;;;;;;;16.75;88.43;101317.09;5012668;28;20115;-54
2022/06/27 05:02:35;;;;;;;27.45;21.50;;;;;;;16.74;88.57;101313.50;5012690;28;20525;-54
2022/06/27 05:05:01;;;;;;;29.00;20.73;;;;;;;16.72;88.72;101313.00;5027539;28;20064;-55
2022/06/27 05:07:28;;;;;;;27.48;20.75;;;;;;;16.71;88.58;101318.94;5012212;28;20049;-54
2022/06/27 05:09:54;;;;;;;28.58;20.20;;;;;;;16.68;88.30;101318.47;5012711;28;20041;-53
2022/06/27 05:12:20;;;;;;;27.55;20.95;;;;;;;16.65;88.27;101307.16;5012686;28;20038;-54
2022/06/27 05:14:46;;;;;;;28.48;21.23;;;;;;;16.58;88.97;101296.50;5012380;28;20029;-49
2022/06/27 05:17:11;;;;;;;28.08;21.35;;;;;;;16.51;89.20;101288.63;5012603;28;20041;-51
2022/06/27 05:19:37;;;;;;;29.00;20.98;;;;;;;16.48;89.43;101285.69;5012001;28;20025;-53
2022/06/27 05:22:03;;;;;;;26.42;19.40;;;;;;;16.43;88.71;101292.28;5012728;28;20418;-50
2022/06/27 05:24:28;;;;;;;28.02;20.45;;;;;;;16.38;88.33;101298.06;5011797;28;20107;-53
2022/06/27 05:26:54;;;;;;;26.27;19.92;;;;;;;16.41;88.23;101302.97;5012205;28;20252;-53
2022/06/27 05:29:20;;;;;;;28.15;20.35;;;;;;;16.35;88.39;101302.31;5012231;28;20473;-52
2022/06/27 05:31:45;;;;;;;25.98;19.70;;;;;;;16.40;88.75;101311.69;5012206;28;20041;-52
2022/06/27 05:34:10;;;;;;;28.08;20.25;;;;;;;16.39;88.38;101302.47;5012241;28;20491;-51
2022/06/27 05:36:37;;;;;;;27.23;19.48;;;;;;;16.42;87.96;101295.44;5012153;28;20505;-52
2022/06/27 05:39:03;;;;;;;27.90;20.05;;;;;;;16.40;88.62;101300.53;5011804;28;20034;-50
2022/06/27 05:41:29;;;;;;;29.35;20.00;;;;;;;16.43;88.46;101323.00;5011593;28;20161;-50
2022/06/27 05:43:54;;;;;;;27.38;20.33;;;;;;;16.47;88.74;101365.03;5011425;28;20037;-51
2022/06/27 05:46:20;;;;;;;26.42;19.35;;;;;;;16.50;89.17;101376.34;5011367;28;20144;-49
2022/06/27 05:48:46;;;;;;;26.92;19.83;;;;;;;16.57;89.19;101387.03;5012083;28;20038;-52
2022/06/27 05:51:12;;;;;;;27.90;21.13;;;;;;;16.63;89.01;101387.66;5011885;28;20048;-52
2022/06/27 05:53:38;;;;;;;28.70;21.25;;;;;;;16.73;88.78;101394.84;5012051;28;20088;-52
2022/06/27 05:56:05;;;;;;;30.88;22.63;;;;;;;16.76;88.52;101396.97;5011883;28;20050;-52
2022/06/27 05:58:31;;;;;;;29.63;21.48;;;;;;;16.84;88.03;101418.47;5011456;28;20022;-51
2022/06/27 06:00:57;;;;;;;28.30;21.75;;;;;;;16.90;87.80;101431.13;5012205;28;20052;-51
2022/06/27 06:03:22;;;;;;;28.77;21.45;;;;;;;16.88;87.42;101424.19;5017401;28;20018;-53
2022/06/27 06:05:48;;;;;;;27.33;21.52;;;;;;;16.91;87.64;101418.75;5014620;28;20025;-52
2022/06/27 06:08:14;;;;;;;28.20;21.02;;;;;;;16.96;87.24;101424.19;5015474;28;20033;-53
2022/06/27 06:10:40;;;;;;;29.73;20.88;;;;;;;16.99;87.42;101420.75;5015456;28;20116;-50
2022/06/27 06:13:06;;;;;;;29.70;22.10;;;;;;;17.04;87.24;101430.06;5011644;28;20160;-51
2022/06/27 06:15:32;;;;;;;29.08;22.52;;;;;;;17.06;87.21;101428.59;5011199;28;20037;-53
2022/06/27 06:18:01;;;;;;;29.85;22.35;;;;;;;17.08;87.30;101415.09;5011033;28;20083;-54
2022/06/27 06:20:27;;;;;;;29.27;22.58;;;;;;;17.10;87.54;101415.59;5011086;28;20026;-54
2022/06/27 06:22:53;;;;;;;29.80;22.83;;;;;;;17.11;88.05;101420.03;5011165;28;20030;-51
2022/06/27 06:25:19;;;;;;;30.45;24.35;;;;;;;17.08;87.50;101409.50;5011013;28;20048;-54
2022/06/27 06:27:44;;;;;;;29.73;23.52;;;;;;;17.09;87.75;101410.34;5010445;28;20026;-51
2022/06/27 06:30:10;;;;;;;29.25;22.90;;;;;;;17.11;86.97;101428.41;5011175;28;20038;-53
2022/06/27 06:32:35;;;;;;;32.35;23.10;;;;;;;17.14;87.46;101429.69;5011061;28;20061;-54
2022/06/27 06:35:02;;;;;;;31.08;22.33;;;;;;;17.16;87.39;101430.19;5010995;28;20442;-56
2022/06/27 06:37:29;;;;;;;29.92;22.75;;;;;;;17.16;87.19;101421.81;5011108;28;20121;-55
2022/06/27 06:39:54;;;;;;;30.13;22.25;;;;;;;17.20;87.34;101433.13;5010787;28;20457;-55
2022/06/27 06:42:20;;;;;;;29.85;23.60;;;;;;;17.23;87.15;101433.28;5010885;28;20049;-55
2022/06/27 06:44:46;;;;;;;30.13;22.70;;;;;;;17.27;87.25;101416.63;5011020;28;20032;-55
2022/06/27 06:47:14;;;;;;;32.80;24.10;;;;;;;17.27;87.38;101413.84;5010268;28;20080;-54
2022/06/27 06:49:41;;;;;;;30.75;23.02;;;;;;;17.31;86.92;101404.44;5010760;28;20033;-51
2022/06/27 06:52:07;;;;;;;30.52;23.02;;;;;;;17.34;86.82;101396.53;5010909;28;20450;-54
2022/06/27 06:54:32;;;;;;;29.80;22.83;;;;;;;17.36;86.23;101397.81;5010553;28;20026;-54
2022/06/27 06:56:58;;;;;;;30.85;22.90;;;;;;;17.39;86.30;101387.94;5010910;28;20078;-54
2022/06/27 06:59:23;;;;;;;30.17;22.65;;;;;;;17.41;86.46;101383.66;5010639;28;20418;-58
2022/06/27 07:01:50;;;;;;;29.95;23.70;;;;;;;17.45;87.07;101361.41;5010775;28;20034;-54
2022/06/27 07:04:16;;;;;;;29.42;23.63;;;;;;;17.49;87.14;101350.34;5011211;28;20022;-51
2022/06/27 07:06:43;;;;;;;31.52;25.15;;;;;;;17.48;87.49;101352.31;5010883;28;20133;-57
2022/06/27 07:09:08;;;;;;;30.63;24.02;;;;;;;17.56;87.67;101378.59;5010906;28;20030;-54
2022/06/27 07:11:37;;;;;;;30.45;24.48;;;;;;;17.69;86.41;101377.50;5010889;28;20026;-51
2022/06/27 07:14:04;;;;;;;31.92;25.10;;;;;;;17.82;86.90;101372.78;5011210;28;20026;-53
2022/06/27 07:16:29;;;;;;;33.47;26.65;;;;;;;17.92;87.04;101363.13;5010956;28;20080;-54
2022/06/27 07:18:56;;;;;;;30.25;23.38;;;;;;;18.04;85.87;101349.22;5010766;28;20454;-54
2022/06/27 07:21:23;;;;;;;34.75;24.42;;;;;;;18.10;85.73;101341.44;5009338;28;20512;-52
2022/06/27 07:23:50;;;;;;;32.83;24.83;;;;;;;18.12;85.12;101364.31;5009449;28;20416;-54
2022/06/27 07:26:17;;;;;;;30.25;24.20;;;;;;;18.18;85.12;101390.13;5008806;28;20025;-50
2022/06/27 07:28:44;;;;;;;30.58;24.38;;;;;;;18.19;84.95;101400.13;5008558;28;20477;-54
2022/06/27 07:31:12;;;;;;;31.02;24.67;;;;;;;18.23;84.79;101406.69;5008762;28;20032;-54
2022/06/27 07:33:38;;;;;;;31.15;23.60;;;;;;;18.34;83.88;101416.28;5009003;28;20150;-54
2022/06/27 07:36:05;;;;;;;30.83;23.13;;;;;;;18.45;83.32;101422.25;5008992;28;20046;-55
2022/06/27 07:38:32;;;;;;;32.63;24.65;;;;;;;18.58;82.20;101425.91;5010772;28;20033;-54
2022/06/27 07:40:58;;;;;;;31.83;23.80;;;;;;;18.80;82.17;101421.84;5012909;28;20029;-54
2022/06/27 07:43:24;;;;;;;31.80;23.55;;;;;;;19.02;79.46;101394.56;5012358;28;20036;-54
2022/06/27 07:45:50;;;;;;;27.88;21.73;;;;;;;19.23;78.39;101383.22;5012318;28;20026;-53
2022/06/27 07:48:17;;;;;;;27.02;20.40;;;;;;;19.41;76.33;101397.81;5010484;28;20070;-54
2022/06/27 07:50:43;;;;;;;26.88;19.45;;;;;;;19.50;74.92;101417.31;5012266;28;20025;-53
2022/06/27 07:53:17;;;;;;;27.20;20.65;;;;;;;19.62;75.97;101410.84;5012173;28;20136;-54
2022/06/27 07:55:59;;;;;;;27.83;21.63;;;;;;;19.76;76.73;101416.06;5027209;28;20494;-54
2022/06/27 07:58:33;;;;;;;27.50;21.35;;;;;;;19.83;76.42;101423.91;5011887;28;20037;-54
2022/06/27 08:01:00;;;;;;;30.35;22.60;;;;;;;19.87;75.39;101425.66;5012331;28;20070;-53
2022/06/27 08:03:40;;;;;;;25.45;18.27;;;;;;;19.87;72.28;101436.06;5011938;28;20033;-54
2022/06/27 08:06:09;;;;;;;27.15;19.02;;;;;;;19.77;72.63;101437.38;5011978;28;20044;-53
2022/06/27 08:08:37;;;;;;;29.30;19.55;;;;;;;19.61;73.02;101442.88;5011713;28;20493;-53
2022/06/27 08:11:03;;;;;;;26.25;17.95;;;;;;;19.55;72.17;101447.94;5011722;28;20048;-54
2022/06/27 08:13:31;;;;;;;24.63;17.42;;;;;;;19.53;72.62;101446.66;5011738;28;20331;-50
2022/06/27 08:15:57;;;;;;;24.83;18.33;;;;;;;19.55;73.31;101447.13;5011517;28;20517;-53
2022/06/27 08:18:23;;;;;;;25.65;17.98;;;;;;;19.61;72.81;101463.34;5011548;28;20078;-55
2022/06/27 08:20:49;;;;;;;25.08;18.42;;;;;;;19.71;72.64;101464.03;5011572;28;20038;-53
2022/06/27 08:23:15;;;;;;;27.65;18.42;;;;;;;19.78;72.40;101450.22;5011966;28;20084;-53
2022/06/27 08:25:41;;;;;;;26.40;18.27;;;;;;;19.86;70.29;101440.88;5026784;28;20037;-52
2022/06/27 08:28:09;;;;;;;25.38;18.20;;;;;;;19.96;71.07;101456.41;5011674;28;20057;-54
2022/06/27 08:30:34;;;;;;;25.92;18.27;;;;;;;20.03;71.43;101455.78;5011243;28;20167;-53
2022/06/27 08:33:00;;;;;;;26.55;18.48;;;;;;;20.06;71.63;101460.72;5011445;28;20030;-53
2022/06/27 08:35:26;;;;;;;24.02;18.08;;;;;;;20.04;70.55;101457.44;5014473;28;20043;-54
2022/06/27 08:37:52;;;;;;;23.45;16.75;;;;;;;19.94;69.87;101467.16;5013960;28;20164;-59
2022/06/27 08:40:19;;;;;;;23.42;16.05;;;;;;;19.82;69.99;101476.41;5017353;28;20087;-53
2022/06/27 08:42:45;;;;;;;27.17;18.88;;;;;;;19.76;72.65;101484.25;5030912;28;20029;-54
2022/06/27 08:45:14;;;;;;;26.70;18.92;;;;;;;19.72;73.73;101500.19;5021641;28;20039;-53
2022/06/27 08:47:41;;;;;;;27.00;19.27;;;;;;;19.63;72.96;101491.88;5030387;28;20033;-54
2022/06/27 08:50:09;;;;;;;25.73;19.17;;;;;;;19.56;73.48;101488.03;5008807;28;20033;-54
2022/06/27 08:52:39;;;;;;;24.35;18.42;;;;;;;19.56;74.15;101474.81;5011178;28;20092;-54
2022/06/27 08:55:07;;;;;;;26.88;19.13;;;;;;;19.54;74.00;101479.16;5011111;28;20033;-54
2022/06/27 08:57:32;;;;;;;27.52;18.38;;;;;;;19.52;73.79;101476.69;5011048;28;20084;-54
2022/06/27 09:00:03;;;;;;;26.35;19.58;;;;;;;19.51;73.01;101477.03;5011172;28;20423;-53
2022/06/27 09:02:29;;;;;;;24.85;19.25;;;;;;;19.51;73.79;101479.84;5010654;28;20037;-55
2022/06/27 09:04:58;;;;;;;26.02;18.80;;;;;;;19.57;73.59;101482.06;5010941;28;20030;-52
2022/06/27 09:07:48;;;;;;;24.85;18.15;;;;;;;19.65;73.04;101488.72;5010792;28;20061;-54
2022/06/27 09:10:25;;;;;;;25.65;18.55;;;;;;;19.75;72.34;101496.66;5002002;28;20129;-54
2022/06/27 09:13:13;;;;;;;26.65;18.50;;;;;;;19.94;72.79;101506.47;5011118;28;20081;-54
2022/06/27 09:15:39;;;;;;;25.13;17.83;;;;;;;20.04;71.52;101499.56;5010969;28;20077;-54
2022/06/27 09:18:06;;;;;;;25.57;18.30;;;;;;;20.18;71.78;101502.78;5010101;28;20536;-54
2022/06/27 09:20:54;;;;;;;26.58;20.23;;;;;;;20.29;72.12;101491.88;5010703;28;20319;-55
2022/06/27 09:23:26;;;;;;;27.00;20.48;;;;;;;20.41;71.87;101474.94;5010687;28;20071;-54
2022/06/27 09:26:30;;;;;;;26.30;20.67;;;;;;;20.65;71.57;101469.53;5010405;28;20465;-54
2022/06/27 09:29:08;;;;;;;25.55;19.10;;;;;;;20.82;70.42;101480.50;5008886;28;20018;-54
2022/06/27 09:31:42;;;;;;;25.23;20.08;;;;;;;20.95;68.32;101475.59;5010405;28;20029;-55
2022/06/27 09:34:19;;;;;;;25.13;18.27;;;;;;;21.19;68.04;101496.28;5010559;28;20116;-54
2022/06/27 09:36:52;;;;;;;25.48;18.13;;;;;;;21.30;66.18;101500.19;5010109;28;20083;-53
2022/06/27 09:39:36;;;;;;;26.45;19.58;;;;;;;21.43;67.29;101508.53;5009914;28;20040;-54
2022/06/27 09:42:02;;;;;;;25.58;19.55;;;;;;;21.40;65.71;101495.97;5010182;28;20468;-54
2022/06/27 09:44:34;;;;;;;25.13;19.02;;;;;;;21.53;65.88;101498.69;5010189;28;20026;-54
2022/06/27 09:47:27;;;;;;;25.70;18.92;;;;;;;21.60;66.09;101498.88;5009863;28;20100;-54
2022/06/27 09:49:56;;;;;;;24.42;18.52;;;;;;;21.56;62.85;101498.78;5003540;28;20038;-53
2022/06/27 09:52:24;;;;;;;26.73;18.73;;;;;;;21.56;64.12;101495.94;5009400;28;20022;-54
2022/06/27 09:54:52;;;;;;;25.92;19.55;;;;;;;21.79;65.25;101482.03;5007268;28;20034;-55
2022/06/27 09:57:19;;;;;;;27.17;20.15;;;;;;;22.03;64.94;101482.13;5009743;28;20030;-55
2022/06/27 09:59:47;;;;;;;25.23;19.35;;;;;;;22.26;63.20;101485.84;5009163;28;20124;-54
2022/06/27 10:02:16;;;;;;;26.73;19.52;;;;;;;22.45;62.98;101481.41;5009203;28;20434;-55
2022/06/27 10:04:45;;;;;;;27.60;20.42;;;;;;;22.47;61.33;101492.31;5009917;28;20037;-55
2022/06/27 10:07:13;;;;;;;26.13;19.67;;;;;;;22.33;62.13;101485.19;5009627;28;20096;-53
2022/06/27 10:09:40;;;;;;;26.60;19.58;;;;;;;22.07;61.93;101474.56;5009310;28;20036;-54
2022/06/27 10:12:24;;;;;;;25.08;18.85;;;;;;;22.07;62.75;101466.94;5009222;28;20022;-54
2022/06/27 10:15:09;;;;;;;;;;;;;;;22.16;63.83;101466.72;4990490;28;20030;-54
2022/06/27 10:17:44;;;;;;;25.55;18.80;;;;;;;22.09;62.07;101464.56;5004673;28;20277;-55
2022/06/27 10:20:20;;;;;;;24.05;18.13;;;;;;;22.31;61.04;101462.19;5011406;28;20026;-54
2022/06/27 10:23:26;;;;;;;25.52;17.73;;;;;;;22.59;61.30;101461.94;5011274;28;20036;-53
2022/06/27 10:25:52;;;;;;;25.17;17.75;;;;;;;22.82;59.65;101465.97;5011597;28;20022;-54
2022/06/27 10:28:20;;;;;;;27.40;18.17;;;;;;;22.74;57.32;101462.22;5010675;28;20378;-54
2022/06/27 10:30:47;;;;;;;25.40;17.52;;;;;;;22.97;58.00;101469.84;5011320;28;20061;-54
2022/06/27 10:33:21;;;;;;;23.10;16.40;;;;;;;23.05;58.19;101463.97;5011086;28;20041;-55
2022/06/27 10:35:59;;;;;;;23.55;15.63;;;;;;;22.89;55.18;101461.25;5010755;28;20159;-55
2022/06/27 10:38:39;;;;;;;22.25;14.45;;;;;;;23.01;55.94;101454.59;5011141;28;20385;-55
2022/06/27 10:41:06;;;;;;;20.27;13.40;;;;;;;22.72;52.62;101458.94;5010968;28;20084;-55
2022/06/27 10:43:51;;;;;;;20.58;13.73;;;;;;;22.86;56.42;101464.03;5009270;28;20069;-55
2022/06/27 10:46:16;;;;;;;22.23;13.38;;;;;;;22.76;53.01;101465.47;5009648;28;20501;-55
2022/06/27 10:48:42;;;;;;;20.30;12.27;;;;;;;;;;5010793;28;20034;-55
2022/06/27 10:51:30;;;;;;;19.88;12.27;;;;;;;23.15;54.10;101472.97;5010835;28;20026;-55
2022/06/27 10:54:04;;;;;;;21.98;12.98;;;;;;;23.17;52.63;101470.59;5011101;28;20029;-57
2022/06/27 10:56:33;;;;;;;23.25;16.17;;;;;;;23.23;52.78;101462.66;5010816;28;20050;-54
2022/06/27 10:59:01;;;;;;;22.45;14.40;;;;;;;23.19;52.83;101463.41;5011229;28;20046;-53
2022/06/27 11:01:27;;;;;;;22.33;14.13;;;;;;;23.02;52.83;101464.69;5011123;28;20050;-53
2022/06/27 11:03:52;;;;;;;20.83;14.05;;;;;;;;;;5010983;28;20049;-51
2022/06/27 11:06:18;;;;;;;20.63;13.52;;;;;;;22.71;52.93;101468.59;5010707;28;20022;-51
2022/06/27 11:08:51;;;;;;;21.75;13.35;;;;;;;22.58;53.69;101471.59;5010945;28;20439;-53
2022/06/27 11:11:19;;;;;;;22.40;15.52;;;;;;;22.46;55.07;101482.22;5012249;28;20054;-54
2022/06/27 11:13:53;;;;;;;21.38;14.73;;;;;;;22.38;56.66;101479.22;5014886;28;20143;-54
2022/06/27 11:16:25;;;;;;;21.73;14.82;;;;;;;22.36;55.23;101481.59;5014314;28;20182;-56
2022/06/27 11:18:56;;;;;;;22.65;14.82;;;;;;;22.31;54.93;101476.28;5014229;28;20072;-53